KGED/GED METAR and TAF weather

Enter ICAO airport designator
Station Type Date Time Source
KGED METAR 2019/10/23 19:54 UTC NOAA

KGED 231954Z AUTO 32007KT 280V350 10SM CLR 19/04 A3006 RMK AO2 SLP179 T01940039 $


Station Type Date Time Source
KGED Decoded METAR 2019/10/23 19:54 UTC NOAA

GEORGETOWN SUSSEX CO AIRPORT , DE, United States (KGED) 38-41N 075-22W 19M
Oct 23, 2019 - 03:54 PM EDT / 2019.10.23 1954 UTC
Wind: from the NW (320 degrees) at 8 MPH (7 KT) (direction variable):0
Visibility: 10 mile(s):0
Sky conditions: clear
Temperature: 66.9 F (19.4 C)
Dew Point: 39.0 F (3.9 C)
Relative Humidity: 35%
Pressure (altimeter): 30.06 in. Hg (1017 hPa)
ob: KGED 231954Z AUTO 32007KT 280V350 10SM CLR 19/04 A3006 RMK AO2 SLP179 T01940039
cycle: 20

Station Type Date Time Source
KGED TAF UTC NOAA

Error!

Example: see airport list